Time;durP1;ratioP1;P1;durP2;ratioP2;P2;SDS_P1;SDS_P2;PMS_P1;PMS_P2;Temp;Humidity;BMP_temperature;BMP_pressure;BME280_temperature;BME280_humidity;BME280_pressure;Samples;Min_cycle;Max_cycle;Signal;HPM_P1;HPM_P2
2022/10/14 00:01:03;;;;;;;;;;;;;;;8.68;75.125;101607.3;;;;-74
2022/10/14 00:05:59;;;;;;;;;;;;;;;8.72;74.96387;101609.4;;;;-74
2022/10/14 00:06:24;;;;;;;6.9;3.9;;;;;;;;;;;;;-74
2022/10/14 00:11:00;;;;;;;;;;;;;;;8.72;75.26367;101609.8;;;;-75
2022/10/14 00:16:00;;;;;;;;;;;;;;;8.72;75.20703;101605.5;;;;-75
2022/10/14 00:21:03;;;;;;;;;;;;;;;8.73;74.95605;101603.4;;;;-75
2022/10/14 00:25:59;;;;;;;;;;;;;;;8.69;75.23535;101597;;;;-74
2022/10/14 00:31:00;;;;;;;;;;;;;;;8.67;75.33105;101593.5;;;;-74
2022/10/14 00:36:01;;;;;;;;;;;;;;;8.64;75.63574;101586;;;;-75
2022/10/14 00:36:25;;;;;;;7.4;4.4;;;;;;;;;;;;;-73
2022/10/14 00:40:59;;;;;;;;;;;;;;;8.62;75.51074;101581.1;;;;-75
2022/10/14 00:46:00;;;;;;;;;;;;;;;8.58;75.30469;101566.8;;;;-75
2022/10/14 00:51:00;;;;;;;;;;;;;;;8.56;75.2793;101561;;;;-74
2022/10/14 00:55:59;;;;;;;;;;;;;;;8.52;75.37109;101565.6;;;;-73
2022/10/14 01:00:59;;;;;;;;;;;;;;;8.5;75.73145;101551.1;;;;-75
2022/10/14 01:06:04;;;;;;;;;;;;;;;8.48;75.99414;101549.5;;;;-75
2022/10/14 01:06:30;;;;;;;8.4;4.7;;;;;;;;;;;;;-74
2022/10/14 01:11:04;;;;;;;;;;;;;;;8.48;75.80566;101547.2;;;;-75
2022/10/14 01:16:07;;;;;;;;;;;;;;;8.5;76.30664;101543.3;;;;-75
2022/10/14 01:21:18;;;;;;;;;;;;;;;8.52;76.20898;101543.9;;;;-74
2022/10/14 01:26:03;;;;;;;;;;;;;;;8.56;75.875;101546.1;;;;-74
2022/10/14 01:31:01;;;;;;;;;;;;;;;8.61;75.8291;101546.5;;;;-74
2022/10/14 01:36:06;;;;;;;;;;;;;;;8.66;75.56152;101549.3;;;;-76
2022/10/14 01:36:27;;;;;;;8.9;5.2;;;;;;;;;;;;;-75
2022/10/14 01:41:02;;;;;;;;;;;;;;;8.7;75.31348;101544.6;;;;-74
2022/10/14 01:46:00;;;;;;;;;;;;;;;8.74;75.44336;101547.7;;;;-76
2022/10/14 01:51:02;;;;;;;;;;;;;;;8.77;75.12793;101546.4;;;;-74
2022/10/14 01:56:00;;;;;;;;;;;;;;;8.83;75.54688;101541.6;;;;-74
2022/10/14 02:00:59;;;;;;;;;;;;;;;8.88;75.58984;101536.5;;;;-75
2022/10/14 02:06:03;;;;;;;;;;;;;;;8.88;75.63379;101529.2;;;;-75
2022/10/14 02:06:29;;;;;;;11.4;6;;;;;;;;;;;;;-74
2022/10/14 02:11:09;;;;;;;;;;;;;;;8.91;75.78027;101524.5;;;;-76
2022/10/14 02:16:05;;;;;;;;;;;;;;;8.94;76.54688;101523.6;;;;-74
2022/10/14 02:21:02;;;;;;;;;;;;;;;8.99;77.03125;101527.1;;;;-75
2022/10/14 02:26:00;;;;;;;;;;;;;;;9.02;77.21191;101526.2;;;;-74
2022/10/14 02:31:01;;;;;;;;;;;;;;;9.03;76.58691;101514.9;;;;-75
2022/10/14 02:35:59;;;;;;;;;;;;;;;9.03;76.31055;101502.9;;;;-70
2022/10/14 02:36:28;;;;;;;14.3;6.9;;;;;;;;;;;;;-70
2022/10/14 02:40:59;;;;;;;;;;;;;;;9.02;76.83887;101496.2;;;;-71
2022/10/14 02:46:00;;;;;;;;;;;;;;;9.01;76.48242;101487.1;;;;-70
2022/10/14 02:50:59;;;;;;;;;;;;;;;9.01;76.41797;101487.2;;;;-75
2022/10/14 02:55:59;;;;;;;;;;;;;;;8.96;76.48535;101500.1;;;;-75
2022/10/14 03:01:00;;;;;;;;;;;;;;;8.98;76.6875;101494.1;;;;-74
2022/10/14 03:05:59;;;;;;;;;;;;;;;8.99;77.12988;101488.9;;;;-74
2022/10/14 03:06:27;;;;;;;14.4;8;;;;;;;;;;;;;-74
2022/10/14 03:10:59;;;;;;;;;;;;;;;9.04;76.68555;101486.9;;;;-74
2022/10/14 03:15:59;;;;;;;;;;;;;;;9.09;76.35352;101478.5;;;;-74
2022/10/14 03:20:59;;;;;;;;;;;;;;;9.12;76.55859;101481.4;;;;-76
2022/10/14 03:25:59;;;;;;;;;;;;;;;9.17;77.29492;101469.1;;;;-75
2022/10/14 03:31:01;;;;;;;;;;;;;;;9.23;77.87988;101468.3;;;;-75
2022/10/14 03:36:00;;;;;;;;;;;;;;;9.28;77.4043;101458;;;;-75
2022/10/14 03:36:27;;;;;;;17.7;9.3;;;;;;;;;;;;;-75
2022/10/14 03:40:59;;;;;;;;;;;;;;;9.33;78.06348;101457.9;;;;-76
2022/10/14 03:45:59;;;;;;;;;;;;;;;9.37;77.9248;101449.8;;;;-74
2022/10/14 03:50:59;;;;;;;;;;;;;;;9.42;77.79102;101442.9;;;;-75
2022/10/14 03:55:59;;;;;;;;;;;;;;;9.45;77.66406;101435.7;;;;-74
2022/10/14 04:00:59;;;;;;;;;;;;;;;9.5;77.31055;101433.7;;;;-76
2022/10/14 04:05:59;;;;;;;;;;;;;;;9.55;77.51563;101423.2;;;;-75
2022/10/14 04:06:29;;;;;;;22.1;10.2;;;;;;;;;;;;;-76
2022/10/14 04:10:59;;;;;;;;;;;;;;;9.58;77.17969;101423.5;;;;-74
2022/10/14 04:15:59;;;;;;;;;;;;;;;9.61;76.97461;101418.4;;;;-75
2022/10/14 04:21:02;;;;;;;;;;;;;;;9.66;77.31543;101418.3;;;;-75
2022/10/14 04:25:59;;;;;;;;;;;;;;;9.69;76.85645;101412.5;;;;-75
2022/10/14 04:30:59;;;;;;;;;;;;;;;9.72;76.54199;101409.9;;;;-75
2022/10/14 04:36:05;;;;;;;;;;;;;;;9.76;77.16797;101403.3;;;;-76
2022/10/14 04:36:28;;;;;;;22.4;10.7;;;;;;;;;;;;;-76
2022/10/14 04:41:00;;;;;;;;;;;;;;;9.81;76.86621;101397.4;;;;-74
2022/10/14 04:45:59;;;;;;;;;;;;;;;9.86;77.42871;101386.1;;;;-74
2022/10/14 04:50:59;;;;;;;;;;;;;;;9.91;77.76855;101382.3;;;;-73
2022/10/14 04:55:59;;;;;;;;;;;;;;;9.97;78.32129;101377.5;;;;-74
2022/10/14 05:01:01;;;;;;;;;;;;;;;10;77.95215;101367.3;;;;-76
2022/10/14 05:05:59;;;;;;;;;;;;;;;10.06;78.83496;101356.2;;;;-75
2022/10/14 05:06:29;;;;;;;23.2;11.2;;;;;;;;;;;;;-76
2022/10/14 05:10:59;;;;;;;;;;;;;;;10.08;78.36328;101354.5;;;;-76
2022/10/14 05:15:59;;;;;;;;;;;;;;;10.12;78.34766;101346.8;;;;-75
2022/10/14 05:21:00;;;;;;;;;;;;;;;10.16;79.10742;101339.4;;;;-76
2022/10/14 05:25:59;;;;;;;;;;;;;;;10.18;78.8125;101329.2;;;;-75
2022/10/14 05:30:59;;;;;;;;;;;;;;;10.22;78.41113;101323.6;;;;-76
2022/10/14 05:35:59;;;;;;;;;;;;;;;10.26;78.61719;101317.9;;;;-75
2022/10/14 05:36:30;;;;;;;21.3;10;;;;;;;;;;;;;-77
2022/10/14 05:41:00;;;;;;;;;;;;;;;10.27;78.77539;101312.7;;;;-75
2022/10/14 05:45:59;;;;;;;;;;;;;;;10.28;77.7793;101316.7;;;;-75
2022/10/14 05:51:02;;;;;;;;;;;;;;;10.31;78.44824;101302.6;;;;-75
2022/10/14 05:56:03;;;;;;;;;;;;;;;10.34;78.01172;101305.6;;;;-75
2022/10/14 06:01:01;;;;;;;;;;;;;;;10.36;78.46875;101307.5;;;;-76
2022/10/14 06:05:59;;;;;;;;;;;;;;;10.38;78.32813;101311;;;;-75
2022/10/14 06:06:30;;;;;;;21.8;10.3;;;;;;;;;;;;;-76
2022/10/14 06:10:59;;;;;;;;;;;;;;;10.39;78.37402;101306.6;;;;-76
2022/10/14 06:15:59;;;;;;;;;;;;;;;10.43;78.29199;101297.6;;;;-75
2022/10/14 06:21:00;;;;;;;;;;;;;;;10.44;78.10645;101293.4;;;;-75
2022/10/14 06:25:59;;;;;;;;;;;;;;;10.46;77.82324;101285.2;;;;-75
2022/10/14 06:30:59;;;;;;;;;;;;;;;10.5;77.62988;101288.4;;;;-75
2022/10/14 06:35:59;;;;;;;;;;;;;;;10.54;79.16406;101288.2;;;;-74
2022/10/14 06:36:31;;;;;;;17.6;9.3;;;;;;;;;;;;;-75
2022/10/14 06:40:59;;;;;;;;;;;;;;;10.57;79.93457;101281.5;;;;-77
2022/10/14 06:46:00;;;;;;;;;;;;;;;10.6;80.12793;101265.3;;;;-75
2022/10/14 06:51:00;;;;;;;;;;;;;;;10.64;80.45703;101259.6;;;;-76
2022/10/14 06:56:04;;;;;;;;;;;;;;;10.68;79.40137;101254.8;;;;-76
2022/10/14 07:01:03;;;;;;;;;;;;;;;10.72;79.77441;101255.6;;;;-76
2022/10/14 07:06:01;;;;;;;;;;;;;;;10.77;79.47266;101249.9;;;;-76
2022/10/14 07:06:32;;;;;;;15;8.1;;;;;;;;;;;;;-76
2022/10/14 07:10:59;;;;;;;;;;;;;;;10.82;79.75977;101236.7;;;;-76
2022/10/14 07:15:59;;;;;;;;;;;;;;;10.89;80.17188;101247.6;;;;-76
2022/10/14 07:20:59;;;;;;;;;;;;;;;10.95;80.86816;101235.4;;;;-75
2022/10/14 07:26:01;;;;;;;;;;;;;;;10.98;78.91309;101235.1;;;;-74
2022/10/14 07:31:07;;;;;;;;;;;;;;;11.02;79.15332;101235.2;;;;-76
2022/10/14 07:36:03;;;;;;;;;;;;;;;11.08;79.73926;101229.1;;;;-76
2022/10/14 07:36:33;;;;;;;11.8;6.1;;;;;;;;;;;;;-77
2022/10/14 07:41:07;;;;;;;;;;;;;;;11.11;78.87988;101232.1;;;;-75
2022/10/14 07:46:01;;;;;;;;;;;;;;;11.15;79.1748;101238.4;;;;-76
2022/10/14 07:50:59;;;;;;;;;;;;;;;11.18;78.56055;101244.9;;;;-75
2022/10/14 07:56:00;;;;;;;;;;;;;;;11.22;78.55664;101241.5;;;;-77
2022/10/14 08:01:00;;;;;;;;;;;;;;;11.26;79.82617;101243.1;;;;-75
2022/10/14 08:06:09;;;;;;;;;;;;;;;11.27;78.74512;101240.7;;;;-75
2022/10/14 08:06:34;;;;;;;9.8;5.7;;;;;;;;;;;;;-75
2022/10/14 08:11:10;;;;;;;;;;;;;;;11.32;79.31836;101231;;;;-75
2022/10/14 08:16:01;;;;;;;;;;;;;;;11.35;79.72266;101223.7;;;;-77
2022/10/14 08:21:00;;;;;;;;;;;;;;;11.4;80.58496;101232.2;;;;-77
2022/10/14 08:25:59;;;;;;;;;;;;;;;11.41;80.24316;101227.1;;;;-75
2022/10/14 08:30:59;;;;;;;;;;;;;;;11.46;80.44141;101221.7;;;;-78
2022/10/14 08:35:59;;;;;;;;;;;;;;;11.51;81.17969;101219.1;;;;-74
2022/10/14 08:36:36;;;;;;;8.6;4.8;;;;;;;;;;;;;-76
2022/10/14 08:41:05;;;;;;;;;;;;;;;11.53;80.84277;101223.4;;;;-75
2022/10/14 08:46:02;;;;;;;;;;;;;;;11.59;81.2959;101220.7;;;;-75
2022/10/14 08:51:02;;;;;;;;;;;;;;;11.65;81.18555;101213.9;;;;-76
2022/10/14 08:56:02;;;;;;;;;;;;;;;11.74;81.92188;101208.1;;;;-74
2022/10/14 09:01:00;;;;;;;;;;;;;;;11.8;82.15625;101195.7;;;;-74
2022/10/14 09:06:01;;;;;;;;;;;;;;;11.9;82.34082;101196.4;;;;-76
2022/10/14 09:06:37;;;;;;;7.6;4.5;;;;;;;;;;;;;-75
2022/10/14 09:11:00;;;;;;;;;;;;;;;11.99;82.08984;101194.4;;;;-74
2022/10/14 09:16:03;;;;;;;;;;;;;;;12.04;81.26758;101187.3;;;;-74
2022/10/14 09:21:01;;;;;;;;;;;;;;;12.09;81.03418;101188.3;;;;-75
2022/10/14 09:26:01;;;;;;;;;;;;;;;12.13;81.87305;101181.2;;;;-75
2022/10/14 09:30:59;;;;;;;;;;;;;;;12.18;81.4375;101176.4;;;;-74
2022/10/14 09:35:59;;;;;;;;;;;;;;;12.23;80.81445;101173.2;;;;-74
2022/10/14 09:36:38;;;;;;;7.5;4.4;;;;;;;;;;;;;-77
2022/10/14 09:41:01;;;;;;;;;;;;;;;12.29;82.01465;101175.7;;;;-74
2022/10/14 09:46:01;;;;;;;;;;;;;;;12.32;80.96484;101171;;;;-75
2022/10/14 09:51:00;;;;;;;;;;;;;;;12.38;81.54102;101168.1;;;;-74
2022/10/14 09:56:00;;;;;;;;;;;;;;;12.45;81.86621;101165;;;;-75
2022/10/14 10:01:02;;;;;;;;;;;;;;;12.51;80.83301;101155.3;;;;-76
2022/10/14 10:06:06;;;;;;;;;;;;;;;12.58;81.625;101150.5;;;;-75
2022/10/14 10:06:49;;;;;;;10.7;5.7;;;;;;;;;;;;;-75
2022/10/14 10:11:08;;;;;;;;;;;;;;;12.65;81.70313;101148.7;;;;-79
2022/10/14 10:16:04;;;;;;;;;;;;;;;12.7;82.32422;101145.8;;;;-74
2022/10/14 10:21:08;;;;;;;;;;;;;;;12.75;81.14355;101138.2;;;;-75
2022/10/14 10:26:09;;;;;;;;;;;;;;;12.79;81.34277;101137.2;;;;-75
2022/10/14 10:31:07;;;;;;;;;;;;;;;12.87;81.2002;101130.8;;;;-74
2022/10/14 10:36:05;;;;;;;;;;;;;;;12.91;81.0625;101131.9;;;;-75
2022/10/14 10:36:42;;;;;;;11.3;6.1;;;;;;;;;;;;;-74
2022/10/14 10:41:09;;;;;;;;;;;;;;;12.94;81.93652;101126.3;;;;-75
2022/10/14 10:46:09;;;;;;;;;;;;;;;12.97;80.81836;101123;;;;-77
2022/10/14 10:51:03;;;;;;;;;;;;;;;13.01;80.87012;101118;;;;-76
2022/10/14 10:56:06;;;;;;;;;;;;;;;13.07;81.82715;101110;;;;-76
2022/10/14 11:01:02;;;;;;;;;;;;;;;13.12;81.50195;101105.5;;;;-76
2022/10/14 11:06:04;;;;;;;;;;;;;;;13.18;81.60254;101100.8;;;;-76
2022/10/14 11:16:02;;;;;;;;;;;;;;;13.29;82.20313;101085.6;;;;-71
2022/10/14 11:21:06;;;;;;;;;;;;;;;13.34;83.02246;101083.2;;;;-70
2022/10/14 11:26:02;;;;;;;;;;;;;;;13.41;83.25879;101070.1;;;;-72
2022/10/14 11:31:03;;;;;;;;;;;;;;;13.46;82.67773;101059.3;;;;-71
2022/10/14 11:36:06;;;;;;;;;;;;;;;13.57;83.91309;101060.4;;;;-71
2022/10/14 11:36:48;;;;;;;9;4.5;;;;;;;;;;;;;-72
2022/10/14 11:41:03;;;;;;;;;;;;;;;13.61;83.58594;101056.8;;;;-72
2022/10/14 11:46:01;;;;;;;;;;;;;;;13.66;84.60742;101050.5;;;;-72
2022/10/14 11:51:05;;;;;;;;;;;;;;;13.68;84.06738;101037.6;;;;-71
2022/10/14 11:56:05;;;;;;;;;;;;;;;13.75;84.49121;101023.5;;;;-77
2022/10/14 12:01:02;;;;;;;;;;;;;;;13.83;85.80957;101019.6;;;;-76
2022/10/14 12:06:03;;;;;;;;;;;;;;;13.91;85.88086;101016.2;;;;-76
2022/10/14 12:06:47;;;;;;;8.5;5.3;;;;;;;;;;;;;-77
2022/10/14 12:11:02;;;;;;;;;;;;;;;14;86.33301;101006.9;;;;-76
2022/10/14 12:15:59;;;;;;;;;;;;;;;14.11;86.7998;101001.6;;;;-75
2022/10/14 12:21:03;;;;;;;;;;;;;;;14.18;86.41309;100990.5;;;;-77
2022/10/14 12:26:03;;;;;;;;;;;;;;;14.23;86.34375;100988.8;;;;-76
2022/10/14 12:31:09;;;;;;;;;;;;;;;14.27;86.16113;100981;;;;-76
2022/10/14 12:36:03;;;;;;;;;;;;;;;14.37;86.65039;100978.2;;;;-75
2022/10/14 12:36:49;;;;;;;7.9;5.1;;;;;;;;;;;;;-75
2022/10/14 12:41:09;;;;;;;;;;;;;;;14.53;85.96582;100976.7;;;;-76
2022/10/14 12:46:11;;;;;;;;;;;;;;;14.67;86.06152;100984.9;;;;-75
2022/10/14 12:51:08;;;;;;;;;;;;;;;14.76;86.63672;100981.1;;;;-75
2022/10/14 12:56:03;;;;;;;;;;;;;;;14.82;86.89258;100991.9;;;;-75
2022/10/14 13:01:01;;;;;;;;;;;;;;;14.85;87.42383;100988.2;;;;-76
2022/10/14 13:06:09;;;;;;;;;;;;;;;14.9;87.45703;100986.1;;;;-76
2022/10/14 13:06:59;;;;;;;7.5;4.8;;;;;;;;;;;;;-76
2022/10/14 13:11:10;;;;;;;;;;;;;;;14.97;87.18164;100980.5;;;;-76
2022/10/14 13:16:00;;;;;;;;;;;;;;;15.07;87.07617;100983.1;;;;-75
2022/10/14 13:20:59;;;;;;;;;;;;;;;15.11;86.59473;100971.2;;;;-76
2022/10/14 13:26:03;;;;;;;;;;;;;;;15.15;86.5127;100971.2;;;;-76
2022/10/14 13:31:05;;;;;;;;;;;;;;;15.11;86.38086;100971.9;;;;-75
2022/10/14 13:36:04;;;;;;;;;;;;;;;15.08;86.58887;100972;;;;-71
2022/10/14 13:36:59;;;;;;;5.1;3.5;;;;;;;;;;;;;-75
2022/10/14 13:41:00;;;;;;;;;;;;;;;15;86.50586;100983.2;;;;-74
2022/10/14 13:46:02;;;;;;;;;;;;;;;14.98;86.84668;100981.4;;;;-76
2022/10/14 13:51:07;;;;;;;;;;;;;;;14.97;86.78027;100981.1;;;;-74
2022/10/14 13:55:59;;;;;;;;;;;;;;;14.96;86.35254;100985.6;;;;-75
2022/10/14 14:01:03;;;;;;;;;;;;;;;14.95;86.87695;100978.8;;;;-74
2022/10/14 14:05:59;;;;;;;;;;;;;;;14.95;85.89355;100973.9;;;;-75
2022/10/14 14:06:53;;;;;;;4;2.4;;;;;;;;;;;;;-76
2022/10/14 14:11:03;;;;;;;;;;;;;;;14.95;85.68066;100971.5;;;;-76
2022/10/14 14:15:59;;;;;;;;;;;;;;;14.95;85.04297;100969.9;;;;-75
2022/10/14 14:21:02;;;;;;;;;;;;;;;14.96;84.55566;100963;;;;-75
2022/10/14 14:25:59;;;;;;;;;;;;;;;14.99;83.95996;100961;;;;-75
2022/10/14 14:30:59;;;;;;;;;;;;;;;15.02;84.43164;100956;;;;-75
2022/10/14 14:36:01;;;;;;;;;;;;;;;15.04;83.37695;100955;;;;-71
2022/10/14 14:36:56;;;;;;;6;3.1;;;;;;;;;;;;;-76
2022/10/14 14:41:07;;;;;;;;;;;;;;;15.06;83.20313;100957.8;;;;-73
2022/10/14 14:46:01;;;;;;;;;;;;;;;15.05;82.97461;100955.9;;;;-74
2022/10/14 14:50:59;;;;;;;;;;;;;;;15.01;83.65039;100951.8;;;;-73
2022/10/14 14:56:08;;;;;;;;;;;;;;;14.96;83.37402;100950.9;;;;-74
2022/10/14 15:00:59;;;;;;;;;;;;;;;14.95;83.58105;100951;;;;-79
2022/10/14 15:06:02;;;;;;;;;;;;;;;14.94;83.2793;100951;;;;-79
2022/10/14 15:07:03;;;;;;;6.3;4.1;;;;;;;;;;;;;-79
2022/10/14 15:11:00;;;;;;;;;;;;;;;14.94;83.03418;100952.3;;;;-79
2022/10/14 15:15:59;;;;;;;;;;;;;;;14.95;83.05762;100954.4;;;;-75
2022/10/14 15:21:06;;;;;;;;;;;;;;;14.93;83.28906;100942.1;;;;-75
2022/10/14 15:26:03;;;;;;;;;;;;;;;14.87;82.88574;100935;;;;-75
2022/10/14 15:30:59;;;;;;;;;;;;;;;14.81;83.28906;100923.7;;;;-75
2022/10/14 15:36:03;;;;;;;;;;;;;;;14.78;84.1084;100920.8;;;;-75
2022/10/14 15:36:58;;;;;;;6.4;3.9;;;;;;;;;;;;;-75
2022/10/14 15:40:59;;;;;;;;;;;;;;;14.72;84.04199;100917.7;;;;-75
2022/10/14 15:50:59;;;;;;;;;;;;;;;14.63;83.99121;100910.9;;;;-75
2022/10/14 15:55:59;;;;;;;;;;;;;;;14.58;84.16992;100906.5;;;;-76
2022/10/14 16:01:00;;;;;;;;;;;;;;;14.52;83.95898;100899.1;;;;-74
2022/10/14 16:05:59;;;;;;;;;;;;;;;14.44;83.74316;100890.8;;;;-75
2022/10/14 16:07:00;;;;;;;6.5;3.9;;;;;;;;;;;;;-76
2022/10/14 16:10:59;;;;;;;;;;;;;;;14.37;83.49512;100898.8;;;;-75
2022/10/14 16:16:00;;;;;;;;;;;;;;;14.3;83.59473;100894.3;;;;-75
2022/10/14 16:20:59;;;;;;;;;;;;;;;14.24;83.01367;100897.1;;;;-74
2022/10/14 16:25:59;;;;;;;;;;;;;;;14.17;82.94434;100887.5;;;;-73
2022/10/14 16:30:59;;;;;;;;;;;;;;;14.1;82.91016;100890.2;;;;-75
2022/10/14 16:36:00;;;;;;;;;;;;;;;14.02;82.81641;100890.6;;;;-75
2022/10/14 16:37:02;;;;;;;5.6;3.5;;;;;;;;;;;;;-76
2022/10/14 16:41:05;;;;;;;;;;;;;;;13.95;82.92578;100888.2;;;;-77
2022/10/14 16:46:00;;;;;;;;;;;;;;;13.87;82.48828;100893.9;;;;-75
2022/10/14 16:50:59;;;;;;;;;;;;;;;13.79;82.2168;100899.5;;;;-75
2022/10/14 16:55:59;;;;;;;;;;;;;;;13.73;82.04883;100902.9;;;;-75
2022/10/14 17:01:00;;;;;;;;;;;;;;;13.66;81.91504;100913.3;;;;-76
2022/10/14 17:06:05;;;;;;;;;;;;;;;13.59;81.81055;100907.1;;;;-76
2022/10/14 17:07:06;;;;;;;6.9;4.2;;;;;;;;;;;;;-76
2022/10/14 17:11:03;;;;;;;;;;;;;;;13.53;81.97852;100906.7;;;;-79
2022/10/14 17:16:04;;;;;;;;;;;;;;;13.46;82.14453;100901.3;;;;-77
2022/10/14 17:21:06;;;;;;;;;;;;;;;13.42;81.76855;100906.4;;;;-76
2022/10/14 17:25:59;;;;;;;;;;;;;;;13.36;81.86816;100900.5;;;;-75
2022/10/14 17:31:00;;;;;;;;;;;;;;;13.31;81.88184;100902.2;;;;-74
2022/10/14 17:36:06;;;;;;;;;;;;;;;13.26;81.78516;100903.1;;;;-75
2022/10/14 17:37:08;;;;;;;8.6;4.5;;;;;;;;;;;;;-76
2022/10/14 17:41:03;;;;;;;;;;;;;;;13.21;81.88574;100906.5;;;;-78
2022/10/14 17:46:03;;;;;;;;;;;;;;;13.17;81.84375;100909.7;;;;-75
2022/10/14 17:50:59;;;;;;;;;;;;;;;13.11;81.62207;100901.6;;;;-74
2022/10/14 17:56:00;;;;;;;;;;;;;;;13.07;81.69141;100899.6;;;;-76
2022/10/14 18:01:05;;;;;;;;;;;;;;;13.04;82.26563;100899.1;;;;-76
2022/10/14 18:06:00;;;;;;;;;;;;;;;13;81.95801;100895.5;;;;-75
2022/10/14 18:07:07;;;;;;;7.5;4.5;;;;;;;;;;;;;-76
2022/10/14 18:11:05;;;;;;;;;;;;;;;12.96;82.35156;100891.7;;;;-74
2022/10/14 18:16:04;;;;;;;;;;;;;;;12.94;82.84668;100893.3;;;;-74
2022/10/14 18:21:01;;;;;;;;;;;;;;;12.9;82.50684;100886;;;;-75
2022/10/14 18:26:03;;;;;;;;;;;;;;;12.88;82.71289;100885.1;;;;-77
2022/10/14 18:30:59;;;;;;;;;;;;;;;12.83;81.79297;100885.2;;;;-76
2022/10/14 18:35:59;;;;;;;;;;;;;;;12.79;81.78516;100879.5;;;;-75
2022/10/14 18:37:08;;;;;;;12.4;5.2;;;;;;;;;;;;;-76
2022/10/14 18:41:09;;;;;;;;;;;;;;;12.75;81.93262;100882.3;;;;-75
2022/10/14 18:46:04;;;;;;;;;;;;;;;12.71;81.90332;100875;;;;-77
2022/10/14 18:51:11;;;;;;;;;;;;;;;12.68;82.23047;100887;;;;-77
2022/10/14 18:55:59;;;;;;;;;;;;;;;12.64;82.05859;100885.2;;;;-75
2022/10/14 19:01:00;;;;;;;;;;;;;;;12.59;82.01465;100888.7;;;;-76
2022/10/14 19:05:59;;;;;;;;;;;;;;;12.57;81.62305;100889.9;;;;-75
2022/10/14 19:07:11;;;;;;;8;4.7;;;;;;;;;;;;;-75
2022/10/14 19:11:06;;;;;;;;;;;;;;;12.52;81.48145;100889.5;;;;-75
2022/10/14 19:16:07;;;;;;;;;;;;;;;12.5;81.74219;100882.9;;;;-75
2022/10/14 19:21:07;;;;;;;;;;;;;;;12.45;81.54492;100876.4;;;;-75
2022/10/14 19:25:59;;;;;;;;;;;;;;;12.43;81.74023;100882;;;;-75
2022/10/14 19:30:59;;;;;;;;;;;;;;;12.41;81.70313;100875.1;;;;-76
2022/10/14 19:36:07;;;;;;;;;;;;;;;12.4;82.02344;100866.2;;;;-75
2022/10/14 19:37:11;;;;;;;10.6;5.1;;;;;;;;;;;;;-76
2022/10/14 19:41:00;;;;;;;;;;;;;;;12.38;81.9873;100865.7;;;;-77
2022/10/14 19:46:00;;;;;;;;;;;;;;;12.38;82.45313;100868.3;;;;-77
2022/10/14 19:51:01;;;;;;;;;;;;;;;12.39;82.93262;100863.1;;;;-75
2022/10/14 19:56:04;;;;;;;;;;;;;;;12.4;83.44531;100864.8;;;;-75
2022/10/14 20:00:59;;;;;;;;;;;;;;;12.37;82.87402;100861;;;;-76
2022/10/14 20:06:10;;;;;;;;;;;;;;;12.37;83.48438;100856.9;;;;-76
2022/10/14 20:07:13;;;;;;;15.4;8.2;;;;;;;;;;;;;-75
2022/10/14 20:10:59;;;;;;;;;;;;;;;12.38;83.45313;100849.2;;;;-77
2022/10/14 20:16:00;;;;;;;;;;;;;;;12.37;83.25098;100844.5;;;;-76
2022/10/14 20:20:59;;;;;;;;;;;;;;;12.41;85.5332;100843.8;;;;-79
2022/10/14 20:26:01;;;;;;;;;;;;;;;12.4;84.55469;100838.5;;;;-76
2022/10/14 20:31:00;;;;;;;;;;;;;;;12.46;86.27637;100841.7;;;;-75
2022/10/14 20:36:08;;;;;;;;;;;;;;;12.47;86.12305;100846.6;;;;-76
2022/10/14 20:37:14;;;;;;;20.1;11.8;;;;;;;;;;;;;-75
2022/10/14 20:41:08;;;;;;;;;;;;;;;12.5;85.93945;100844.1;;;;-76
2022/10/14 20:45:59;;;;;;;;;;;;;;;12.52;86.49902;100838;;;;-75
2022/10/14 20:51:02;;;;;;;;;;;;;;;12.53;86.66602;100842.2;;;;-78
2022/10/14 20:56:03;;;;;;;;;;;;;;;12.51;85.97461;100833.5;;;;-75
2022/10/14 21:01:05;;;;;;;;;;;;;;;12.48;85.90039;100832;;;;-75
2022/10/14 21:05:59;;;;;;;;;;;;;;;12.46;84.29883;100831;;;;-75
2022/10/14 21:07:16;;;;;;;21.9;11.7;;;;;;;;;;;;;-76
2022/10/14 21:11:04;;;;;;;;;;;;;;;12.47;85.84473;100829.7;;;;-75
2022/10/14 21:15:59;;;;;;;;;;;;;;;12.45;84.89648;100829.6;;;;-77
2022/10/14 21:21:08;;;;;;;;;;;;;;;12.45;83.97559;100836;;;;-75
2022/10/14 21:26:03;;;;;;;;;;;;;;;12.43;85.31641;100835.5;;;;-75
2022/10/14 21:30:59;;;;;;;;;;;;;;;12.39;84.54199;100835.8;;;;-76
2022/10/14 21:35:59;;;;;;;;;;;;;;;12.37;84.15039;100834.2;;;;-77
2022/10/14 21:37:19;;;;;;;21.7;11;;;;;;;;;;;;;-76
2022/10/14 21:41:01;;;;;;;;;;;;;;;12.34;84.00098;100835.3;;;;-76
2022/10/14 21:46:02;;;;;;;;;;;;;;;12.31;84.09375;100830.1;;;;-76
2022/10/14 21:51:13;;;;;;;;;;;;;;;12.28;83.81152;100827.8;;;;-76
2022/10/14 21:55:59;;;;;;;;;;;;;;;12.27;83.94238;100818.8;;;;-77
2022/10/14 22:01:02;;;;;;;;;;;;;;;12.26;84.23828;100819.3;;;;-76
2022/10/14 22:06:06;;;;;;;;;;;;;;;12.24;84.04688;100817.5;;;;-76
2022/10/14 22:07:18;;;;;;;19.2;9.9;;;;;;;;;;;;;-75
2022/10/14 22:10:59;;;;;;;;;;;;;;;12.23;84.01172;100813.2;;;;-77
2022/10/14 22:15:59;;;;;;;;;;;;;;;12.22;83.84375;100810.8;;;;-75
2022/10/14 22:21:03;;;;;;;;;;;;;;;12.23;83.75586;100807.3;;;;-74
2022/10/14 22:26:03;;;;;;;;;;;;;;;12.23;84.54395;100808.6;;;;-77
2022/10/14 22:29:40;;;;;;;;;;;;;;;12.35;82.96875;100809;;;;-74
2022/10/14 22:32:21;;;;;;;;;;;;;;;12.22;83.71191;100809.3;;;;-74
2022/10/14 22:37:15;;;;;;;;;;;;;;;12.21;83.65332;100800.2;;;;-76
2022/10/14 22:37:24;;;;;;;16.2;9.2;;;;;;;;;;;;;-76
2022/10/14 22:42:15;;;;;;;;;;;;;;;12.22;83.92285;100792;;;;-76
2022/10/14 22:47:14;;;;;;;;;;;;;;;12.24;83.74707;100788.5;;;;-76
2022/10/14 22:52:15;;;;;;;;;;;;;;;12.24;83.76855;100790.1;;;;-75
2022/10/14 22:57:24;;;;;;;;;;;;;;;12.24;83.86914;100782.8;;;;-75
2022/10/14 23:02:15;;;;;;;;;;;;;;;12.24;83.72656;100778.3;;;;-76
2022/10/14 23:07:15;;;;;;;;;;;;;;;12.25;83.93945;100771.2;;;;-75
2022/10/14 23:07:24;;;;;;;17.1;8.6;;;;;;;;;;;;;-75
2022/10/14 23:12:14;;;;;;;;;;;;;;;12.26;83.70605;100770.4;;;;-76
2022/10/14 23:17:15;;;;;;;;;;;;;;;12.25;83.63965;100775.9;;;;-76
2022/10/14 23:22:15;;;;;;;;;;;;;;;12.22;84.02051;100769.7;;;;-76
2022/10/14 23:27:15;;;;;;;;;;;;;;;12.19;84.01758;100771.8;;;;-76
2022/10/14 23:32:15;;;;;;;;;;;;;;;12.18;83.96777;100780.8;;;;-74
2022/10/14 23:37:15;;;;;;;;;;;;;;;12.18;84.20117;100777.3;;;;-76
2022/10/14 23:37:24;;;;;;;16.1;8.5;;;;;;;;;;;;;-76
2022/10/14 23:42:15;;;;;;;;;;;;;;;12.17;84.2334;100766.9;;;;-75
2022/10/14 23:47:18;;;;;;;;;;;;;;;12.18;85.0791;100762.4;;;;-75
2022/10/14 23:52:15;;;;;;;;;;;;;;;12.17;84.67773;100765.7;;;;-77
2022/10/14 23:57:17;;;;;;;;;;;;;;;12.17;84.06738;100764.1;;;;-76
